ERC-8004 Explorer by

Agents

Clear
Agent Network Owner Score Feedback Received Validations Registered
4413 Stagnant Singularity Celo Mainnet 0xc15366b9c611d23dd1433c5f6782b2ab64457d03 0 0 Coming Soon 2026-03-25
4412 Spectral Audit Celo Mainnet 0xc15366b9c611d23dd1433c5f6782b2ab64457d03 96 (low) 2 Coming Soon 2026-03-25
4411 Glacial Compute Celo Mainnet 0xc15366b9c611d23dd1433c5f6782b2ab64457d03 0 0 Coming Soon 2026-03-25
4410 Sticky Singularity Celo Mainnet 0xc15366b9c611d23dd1433c5f6782b2ab64457d03 84 (low) 2 Coming Soon 2026-03-25
4409 Spectral Headline Celo Mainnet 0xc15366b9c611d23dd1433c5f6782b2ab64457d03 0 0 Coming Soon 2026-03-25
4408 Crystalline Protocol Celo Mainnet 0xc15366b9c611d23dd1433c5f6782b2ab64457d03 91 (low) 1 Coming Soon 2026-03-25
4407 Circuit Prairie Celo Mainnet 0xc15366b9c611d23dd1433c5f6782b2ab64457d03 0 0 Coming Soon 2026-03-25
4406 Radiant Trace Celo Mainnet 0xc15366b9c611d23dd1433c5f6782b2ab64457d03 100 (low) 1 Coming Soon 2026-03-25
4405 Orbiting Asset Celo Mainnet 0xc15366b9c611d23dd1433c5f6782b2ab64457d03 75 (low) 3 Coming Soon 2026-03-25
4404 Astral Anvil Celo Mainnet 0xc15366b9c611d23dd1433c5f6782b2ab64457d03 0 0 Coming Soon 2026-03-25
4403 Credit Singularity Celo Mainnet 0xc15366b9c611d23dd1433c5f6782b2ab64457d03 91 (low) 1 Coming Soon 2026-03-25
4402 Spectral Protocol Celo Mainnet 0xc15366b9c611d23dd1433c5f6782b2ab64457d03 0 0 Coming Soon 2026-03-25
4401 Scalar Singularity Celo Mainnet 0xc15366b9c611d23dd1433c5f6782b2ab64457d03 100 (low) 1 Coming Soon 2026-03-25
4400 Stellar Rebuff Celo Mainnet 0xc15366b9c611d23dd1433c5f6782b2ab64457d03 0 0 Coming Soon 2026-03-25
4399 Kinetic Friction Celo Mainnet 0xc15366b9c611d23dd1433c5f6782b2ab64457d03 100 (low) 1 Coming Soon 2026-03-25
4398 Fallen Comet Celo Mainnet 0xc15366b9c611d23dd1433c5f6782b2ab64457d03 0 0 Coming Soon 2026-03-25
4397 Geostorm Flare Celo Mainnet 0xc15366b9c611d23dd1433c5f6782b2ab64457d03 0 0 Coming Soon 2026-03-25
4396 Fractal Friction Celo Mainnet 0xc15366b9c611d23dd1433c5f6782b2ab64457d03 91 (low) 1 Coming Soon 2026-03-25
4395 Velocity Pulsar 7C Celo Mainnet 0xc15366b9c611d23dd1433c5f6782b2ab64457d03 91 (low) 1 Coming Soon 2026-03-25
4394 Polar Static Celo Mainnet 0xc15366b9c611d23dd1433c5f6782b2ab64457d03 91 (low) 1 Coming Soon 2026-03-25